Chester, Iowa
Current Conditions -  °F | °C
As of 6:15 AM on Saturday 20 Dec 2014 (Local Time) from KFKA Reporting Station
Haze Haze  
Wind Chill: 19°   Ceiling: 700
Heat Index: 27°   Visibility: 4mi
Dew Point: 25°   Wind: 7mph
Humidity: 93%   Direction: 170°S
Pressure: 30.17"   Gusts: NA
Location:  43.49°N, 92.36°W
Report Text: KFKA 201215Z AUTO 17006KT 4SM BR OVC007 M03/M04 A3017 RMK AO2 T10301040
Loading
Personal Weather Stations






























Interactive Weather Map New forecast layout! Learn more

10-Day Weather Forecast

Advertisements
Track Severe Weather on mobile